Time;durP1;ratioP1;P1;durP2;ratioP2;P2;SDS_P1;SDS_P2;PMS_P1;PMS_P2;Temp;Humidity;BMP_temperature;BMP_pressure;BME280_temperature;BME280_humidity;BME280_pressure;Samples;Min_cycle;Max_cycle;Signal;HPM_P1;HPM_P2
2022/09/04 00:02:01;;;;;;;;;;;18.10;99.90;;;21.02;58.51;97606.66;5011479;28;20413;-42
2022/09/04 00:04:38;;;;;;;4.05;3.33;;;17.90;99.90;;;20.91;58.83;97604.72;5009213;28;19917;-42
2022/09/04 00:07:15;;;;;;;4.13;3.55;;;17.80;99.90;;;20.80;59.10;97606.31;5009548;28;20072;-42
2022/09/04 00:10:13;;;;;;;4.22;3.42;;;17.70;99.90;;;20.72;58.96;97598.50;5008861;28;20052;-44
2022/09/04 00:13:09;;;;;;;3.97;3.35;;;17.70;99.90;;;20.70;59.23;97603.31;5010543;28;20251;-43
2022/09/04 00:15:48;;;;;;;7.75;3.80;;;17.70;99.90;;;20.66;59.38;97604.81;5007546;28;20045;-44
2022/09/04 00:18:46;;;;;;;5.75;4.20;;;17.70;99.90;;;20.64;59.26;97609.63;5008470;28;20062;-41
2022/09/04 00:21:23;;;;;;;4.35;3.88;;;17.70;99.90;;;20.61;59.88;97604.69;5006838;28;20056;-42
2022/09/04 00:23:58;;;;;;;4.53;3.22;;;17.70;99.90;;;20.61;59.77;97605.50;5008467;28;20076;-44
2022/09/04 00:26:56;;;;;;;4.85;3.20;;;17.70;99.90;;;20.63;60.00;97608.00;5008691;28;20056;-41
2022/09/04 00:29:56;;;;;;;4.35;3.22;;;17.80;99.90;;;20.70;59.69;97606.00;5007681;28;20058;-43
2022/09/04 00:32:39;;;;;;;3.75;3.35;;;17.90;99.90;;;20.73;59.61;97600.16;5006684;28;20068;-43
2022/09/04 00:35:20;;;;;;;5.15;4.00;;;17.90;99.90;;;20.74;59.50;97600.97;5007241;28;20352;-41
2022/09/04 00:38:06;;;;;;;4.35;3.60;;;17.90;99.90;;;20.76;59.52;97606.97;5008757;28;20248;-45
2022/09/04 00:40:43;;;;;;;5.20;2.90;;;17.90;99.90;;;20.78;59.29;97608.44;5007735;28;20058;-42
2022/09/04 00:43:41;;;;;;;4.60;3.47;;;17.90;99.90;;;20.80;59.63;97609.03;5009731;28;20581;-42
2022/09/04 00:46:48;;;;;;;4.13;3.42;;;17.90;99.90;;;20.81;59.59;97616.06;5008952;28;20325;-42
2022/09/04 00:49:44;;;;;;;7.82;4.47;;;18.00;99.90;;;20.85;59.58;97621.84;5008847;28;20058;-41
2022/09/04 00:52:52;;;;;;;5.50;4.60;;;18.00;99.90;;;20.80;59.47;97611.72;5007264;28;20069;-42
2022/09/04 00:56:02;;;;;;;5.32;3.90;;;17.90;99.90;;;20.77;59.55;97617.59;5007752;28;20395;-41
2022/09/04 00:59:03;;;;;;;6.78;4.15;;;17.90;99.90;;;20.74;59.59;97630.72;5008742;28;20054;-42
2022/09/04 01:01:31;;;;;;;5.18;4.60;;;17.80;99.90;;;20.72;59.71;97622.84;5008084;28;20056;-41
2022/09/04 01:04:40;;;;;;;4.80;4.30;;;17.80;99.90;;;20.75;59.55;97635.09;5009761;28;20060;-42
2022/09/04 01:07:28;;;;;;;7.35;4.18;;;17.90;99.90;;;20.76;59.30;97634.88;5008551;28;20060;-42
2022/09/04 01:10:33;;;;;;;5.18;4.18;;;17.90;99.90;;;20.76;59.14;97634.03;5007887;28;20050;-42
2022/09/04 01:13:22;;;;;;;;;;;17.90;99.90;;;20.88;58.47;97629.53;5009162;28;20045;-44
2022/09/04 01:16:13;;;;;;;5.22;4.10;;;17.80;99.90;;;20.77;58.66;97644.63;5008934;28;19923;-42
2022/09/04 01:19:15;;;;;;;6.20;4.65;;;17.80;99.90;;;20.69;59.04;97642.25;5007219;28;20062;-42
2022/09/04 01:22:14;;;;;;;5.10;3.60;;;17.70;99.90;;;20.63;58.84;97643.16;5008654;28;20046;-43
2022/09/04 01:24:48;;;;;;;6.05;4.93;;;17.70;99.90;;;20.60;59.03;97646.28;5008875;28;20056;-43
2022/09/04 01:27:44;;;;;;;6.22;4.57;;;17.70;99.90;;;20.57;58.89;97647.56;5007030;28;20061;-42
2022/09/04 01:30:16;;;;;;;6.95;4.15;;;17.70;99.90;;;20.56;59.23;97653.19;5008319;28;20046;-43
2022/09/04 01:33:21;;;;;;;6.45;4.00;;;17.60;99.90;;;20.53;59.29;97653.63;5007151;28;20042;-44
2022/09/04 01:36:21;;;;;;;5.43;4.15;;;17.60;99.90;;;20.54;59.27;97655.28;5008944;28;20103;-42
2022/09/04 01:38:55;;;;;;;5.63;4.57;;;17.60;99.90;;;20.53;59.61;97659.03;5006842;28;20505;-43
2022/09/04 01:42:03;;;;;;;5.60;4.45;;;17.60;99.90;;;20.53;59.42;97659.03;5006642;28;20046;-42
2022/09/04 01:44:32;;;;;;;5.68;3.67;;;17.70;99.90;;;20.47;59.72;97652.63;5008668;28;20058;-41
2022/09/04 01:47:22;;;;;;;6.00;4.65;;;17.60;99.90;;;20.48;59.49;97653.47;5007608;28;20050;-42
2022/09/04 01:50:25;;;;;;;5.75;4.45;;;17.60;99.90;;;20.48;59.46;97665.13;5007327;28;20050;-42
2022/09/04 01:53:11;;;;;;;4.40;3.92;;;17.60;99.90;;;20.50;59.44;97660.31;5006368;28;20243;-41
2022/09/04 01:55:57;;;;;;;5.90;4.05;;;17.60;99.90;;;20.50;59.43;97662.19;5006581;28;20217;-41
2022/09/04 01:59:11;;;;;;;4.28;3.75;;;17.60;99.90;;;20.48;59.63;97661.59;5007669;28;20130;-42
2022/09/04 02:01:59;;;;;;;4.57;3.67;;;17.60;99.90;;;20.52;59.22;97669.03;4997949;28;20255;-44
2022/09/04 02:04:58;;;;;;;5.57;3.65;;;17.60;99.90;;;20.49;59.37;97668.63;5008063;28;20056;-41
2022/09/04 02:07:57;;;;;;;5.25;3.33;;;17.60;99.90;;;20.46;59.41;97667.22;5007522;28;20057;-43
2022/09/04 02:10:55;;;;;;;4.72;3.50;;;17.60;99.90;;;20.44;59.19;97667.44;5004417;28;20056;-43
2022/09/04 02:14:07;;;;;;;5.38;3.78;;;17.60;99.90;;;20.46;59.24;97673.44;5006600;28;20046;-42
2022/09/04 02:17:07;;;;;;;4.65;3.53;;;17.50;99.90;;;20.47;59.07;97671.56;5006836;28;20062;-42
2022/09/04 02:20:06;;;;;;;4.63;3.90;;;17.50;99.90;;;20.46;58.84;97672.63;5006258;28;20546;-41
2022/09/04 02:22:51;;;;;;;5.68;3.30;;;17.50;99.90;;;20.46;58.96;97669.94;5006684;28;20062;-44
2022/09/04 02:25:42;;;;;;;4.68;3.55;;;17.50;99.90;;;20.41;58.81;97670.59;5006610;28;20060;-43
2022/09/04 02:28:38;;;;;;;4.57;3.50;;;17.50;99.90;;;20.38;58.97;97679.16;5006856;28;20076;-43
2022/09/04 02:31:15;;;;;;;5.15;3.92;;;17.50;99.90;;;20.35;59.40;97676.88;5007594;28;20046;-44
2022/09/04 02:34:06;;;;;;;4.20;3.78;;;17.40;99.90;;;20.31;59.10;97675.69;5006441;28;20046;-41
2022/09/04 02:37:08;;;;;;;8.07;3.85;;;17.40;99.90;;;20.31;59.07;97678.38;5005604;28;20159;-41
2022/09/04 02:39:59;;;;;;;4.47;3.80;;;17.30;99.90;;;20.28;59.18;97684.25;5005587;28;20052;-43
2022/09/04 02:43:03;;;;;;;5.03;3.55;;;17.30;99.90;;;20.23;59.16;97674.09;5005781;28;20386;-42
2022/09/04 02:45:47;;;;;;;6.35;3.80;;;17.30;99.90;;;20.25;59.15;97677.38;5006183;28;20270;-42
2022/09/04 02:48:33;;;;;;;4.85;3.92;;;17.30;99.90;;;20.24;59.05;97674.94;5005431;28;20255;-42
2022/09/04 02:51:37;;;;;;;5.75;4.00;;;17.30;99.90;;;20.24;58.80;97683.03;5005863;28;20054;-42
2022/09/04 02:54:56;;;;;;;4.85;3.60;;;17.30;99.90;;;20.22;58.84;97680.56;5008211;28;20357;-43
2022/09/04 02:57:53;;;;;;;5.50;4.15;;;17.30;99.90;;;20.17;58.91;97679.56;5012733;28;20052;-42
2022/09/04 03:01:21;;;;;;;6.95;3.90;;;17.20;99.90;;;20.15;58.88;97677.06;5013188;28;20060;-42
2022/09/04 03:04:07;;;;;;;5.00;3.58;;;17.20;99.90;;;20.17;59.04;97680.38;5012171;28;20050;-41
2022/09/04 03:06:52;;;;;;;5.95;3.53;;;17.20;99.90;;;20.15;59.06;97677.06;5013072;28;20062;-41
2022/09/04 03:09:26;;;;;;;5.15;3.65;;;17.20;99.90;;;20.11;59.02;97678.56;5012946;28;20068;-42
2022/09/04 03:12:10;;;;;;;6.38;4.43;;;17.20;99.90;;;20.08;59.34;97683.59;5014464;28;20064;-42
2022/09/04 03:14:47;;;;;;;4.35;3.67;;;17.20;99.90;;;20.04;59.11;97680.50;5012881;28;20064;-41
2022/09/04 03:17:28;;;;;;;4.55;3.88;;;17.10;99.90;;;19.98;59.28;97684.91;5012332;28;20057;-42
2022/09/04 03:20:14;;;;;;;4.55;4.10;;;17.10;99.90;;;19.97;59.21;97685.16;5013724;28;20072;-43
2022/09/04 03:23:03;;;;;;;5.05;3.88;;;17.00;99.90;;;19.98;59.18;97684.09;5013422;28;20055;-42
2022/09/04 03:25:50;;;;;;;5.82;3.58;;;17.10;99.90;;;19.98;59.00;97689.50;5012630;28;20060;-41
2022/09/04 03:28:36;;;;;;;4.38;3.55;;;17.00;99.90;;;19.96;58.98;97683.47;5013517;28;20054;-42
2022/09/04 03:31:49;;;;;;;5.47;3.67;;;17.00;99.90;;;19.90;58.96;97693.28;5012668;28;20050;-43
2022/09/04 03:34:40;;;;;;;5.32;3.17;;;16.90;99.90;;;19.89;59.04;97688.09;5012885;28;20070;-43
2022/09/04 03:37:37;;;;;;;4.95;3.33;;;16.90;99.90;;;19.81;59.27;97687.34;5012819;28;20350;-42
2022/09/04 03:40:41;;;;;;;4.78;3.47;;;16.80;99.90;;;19.74;58.98;97691.16;5010780;28;20057;-44
2022/09/04 03:43:35;;;;;;;4.30;3.40;;;16.80;99.90;;;19.71;59.24;97696.94;5011777;28;20348;-42
2022/09/04 03:46:15;;;;;;;5.15;3.28;;;16.70;99.90;;;19.69;59.43;97697.16;5012796;28;20046;-41
2022/09/04 03:49:09;;;;;;;5.80;3.50;;;16.70;99.90;;;19.68;59.34;97703.63;5012851;28;20386;-41
2022/09/04 03:52:08;;;;;;;4.60;3.50;;;16.70;99.90;;;19.64;59.25;97692.41;5012355;28;20056;-41
2022/09/04 03:55:32;;;;;;;4.03;3.28;;;16.70;99.90;;;19.63;59.21;97698.03;5012591;28;20219;-41
2022/09/04 03:58:06;;;;;;;3.93;3.30;;;16.60;99.90;;;19.67;59.34;97699.25;5012808;28;20061;-41
2022/09/04 04:01:14;;;;;;;3.58;2.75;;;16.60;99.90;;;19.63;59.37;97703.44;5012230;28;20058;-42
2022/09/04 04:04:06;;;;;;;3.60;3.03;;;16.70;99.90;;;19.65;59.39;97706.72;5010460;28;20080;-43
2022/09/04 04:06:51;;;;;;;4.35;3.95;;;16.70;99.90;;;19.63;59.44;97714.22;5011733;28;20065;-41
2022/09/04 04:09:48;;;;;;;3.55;3.00;;;16.70;99.90;;;19.55;59.55;97709.91;5008961;28;20363;-41
2022/09/04 04:12:50;;;;;;;3.88;3.05;;;16.60;99.90;;;19.51;59.58;97708.69;5009455;28;20052;-41
2022/09/04 04:16:07;;;;;;;4.22;2.83;;;16.50;99.90;;;19.46;59.42;97709.34;5009257;28;20052;-42
2022/09/04 04:19:01;;;;;;;4.93;3.10;;;16.50;99.90;;;19.46;59.51;97717.47;5008529;28;20062;-43
2022/09/04 04:21:49;;;;;;;3.60;3.05;;;16.50;99.90;;;19.46;59.55;97722.84;5009023;28;20553;-42
2022/09/04 04:24:42;;;;;;;4.85;3.05;;;16.50;99.90;;;19.43;59.32;97725.97;5010223;28;20568;-43
2022/09/04 04:27:19;;;;;;;3.60;3.00;;;16.50;99.90;;;19.44;59.46;97722.25;5007667;28;20054;-42
2022/09/04 04:30:13;;;;;;;3.80;2.75;;;16.40;99.90;;;19.43;59.54;97725.97;5009042;28;20050;-43
2022/09/04 04:33:13;;;;;;;3.40;2.90;;;16.50;99.90;;;19.45;59.36;97734.69;5007172;28;20240;-41
2022/09/04 04:36:14;;;;;;;4.65;3.40;;;16.50;99.90;;;19.43;59.37;97734.06;5010254;28;20243;-42
2022/09/04 04:39:03;;;;;;;5.22;3.67;;;16.50;99.90;;;19.44;59.29;97729.50;5007700;28;20053;-41
2022/09/04 04:42:10;;;;;;;3.35;2.95;;;16.50;99.90;;;19.44;59.37;97737.59;5008028;28;20251;-42
2022/09/04 04:48:08;;;;;;;4.10;3.28;;;16.50;99.90;;;19.44;59.58;97738.44;5007939;28;20049;-42
2022/09/04 04:51:22;;;;;;;4.53;3.78;;;16.50;99.90;;;19.42;59.41;97753.19;5008701;28;20344;-41
2022/09/04 04:54:25;;;;;;;3.97;3.00;;;16.50;99.90;;;19.44;59.26;97757.34;5009764;28;20054;-41
2022/09/04 04:57:25;;;;;;;5.30;3.30;;;16.50;99.90;;;19.44;59.35;97768.13;5008811;28;20064;-41
2022/09/04 05:00:14;;;;;;;4.55;3.10;;;16.50;99.90;;;19.44;59.33;97773.53;5006664;28;20060;-41
2022/09/04 05:03:00;;;;;;;5.13;2.97;;;16.50;99.90;;;19.44;59.29;97775.38;5007360;28;20046;-42
2022/09/04 05:06:03;;;;;;;3.72;2.83;;;16.50;99.90;;;19.44;59.25;97783.50;5010432;28;20056;-43
2022/09/04 05:09:00;;;;;;;3.72;3.35;;;16.50;99.90;;;19.46;59.06;97781.41;5006609;28;20061;-42
2022/09/04 05:11:50;;;;;;;3.38;2.80;;;16.50;99.90;;;19.46;59.05;97787.66;5006389;28;20069;-42
2022/09/04 05:14:49;;;;;;;3.70;2.63;;;16.50;99.90;;;19.47;59.10;97794.69;5008656;28;20058;-41
2022/09/04 05:17:24;;;;;;;3.28;2.65;;;16.60;99.90;;;19.50;58.96;97798.00;5008869;28;20119;-42
2022/09/04 05:20:19;;;;;;;5.30;3.50;;;16.60;99.90;;;19.47;59.26;97793.88;5007250;28;20610;-41
2022/09/04 05:23:01;;;;;;;3.60;3.10;;;16.60;99.90;;;19.48;58.96;97796.38;5007258;28;20054;-41
2022/09/04 05:25:40;;;;;;;4.50;3.53;;;16.60;99.90;;;19.48;58.99;97804.47;5007873;28;20076;-42
2022/09/04 05:28:39;;;;;;;4.47;3.17;;;16.50;99.90;;;19.48;59.19;97804.47;5008180;28;20060;-42
2022/09/04 05:31:25;;;;;;;4.93;3.65;;;16.60;99.90;;;19.52;59.10;97809.41;5008806;28;20045;-43
2022/09/04 05:34:20;;;;;;;4.78;3.05;;;16.60;99.90;;;19.50;59.18;97815.03;5007302;28;20046;-43
2022/09/04 05:37:26;;;;;;;5.10;2.65;;;16.60;99.90;;;19.51;59.37;97813.16;5007730;28;20045;-43
2022/09/04 05:40:05;;;;;;;4.60;3.05;;;16.60;99.90;;;19.56;59.46;97814.19;5006706;28;20065;-43
2022/09/04 05:42:57;;;;;;;4.47;3.10;;;16.60;99.90;;;19.56;59.47;97821.44;5005352;28;20079;-42
2022/09/04 05:46:10;;;;;;;4.15;3.50;;;16.70;99.90;;;19.57;59.60;97823.94;5007317;28;20045;-43
2022/09/04 05:49:05;;;;;;;3.90;3.17;;;16.70;99.90;;;19.63;59.59;97831.16;5005210;28;20388;-43
2022/09/04 05:52:04;;;;;;;3.70;2.95;;;16.80;99.90;;;19.70;59.56;97833.84;5007849;28;20052;-42
2022/09/04 05:54:38;;;;;;;4.90;3.38;;;16.80;99.90;;;19.74;59.37;97851.31;5006581;28;20054;-42
2022/09/04 05:57:27;;;;;;;;;;;16.90;99.90;;;19.93;58.98;97846.88;5007295;28;20053;-43
2022/09/04 05:59:58;;;;;;;4.15;3.30;;;17.00;99.90;;;19.91;59.16;97851.66;5007632;28;19918;-43
2022/09/04 06:03:13;;;;;;;4.82;3.55;;;17.00;99.90;;;19.90;59.32;97849.97;5007317;28;20060;-42
2022/09/04 06:05:57;;;;;;;4.55;3.78;;;17.00;99.90;;;19.95;59.17;97852.88;5005471;28;20057;-42
2022/09/04 06:08:53;;;;;;;4.43;3.47;;;17.00;99.90;;;19.96;59.33;97851.81;5005041;28;20056;-42
2022/09/04 06:12:21;;;;;;;3.63;2.65;;;17.10;99.90;;;19.98;59.33;97855.13;5005505;28;20263;-45
2022/09/04 06:15:16;;;;;;;4.85;2.97;;;17.10;99.90;;;20.04;59.66;97853.44;5005402;28;20374;-42
2022/09/04 06:18:05;;;;;;;4.65;3.10;;;17.20;99.90;;;20.08;59.76;97870.06;5006129;28;20054;-44
2022/09/04 06:20:56;;;;;;;4.63;3.20;;;17.20;99.90;;;20.13;59.74;97876.47;5006990;28;20370;-42
2022/09/04 06:23:39;;;;;;;3.45;2.85;;;17.30;99.90;;;20.19;59.22;97870.19;5007350;28;20054;-43
2022/09/04 06:26:55;;;;;;;2.88;2.55;;;17.40;99.90;;;20.27;59.44;97871.81;5006905;28;20061;-43
2022/09/04 06:29:53;;;;;;;3.35;2.60;;;17.50;99.90;;;20.37;59.54;97874.03;5007176;28;20045;-45
2022/09/04 06:33:03;;;;;;;3.28;2.72;;;17.60;99.90;;;20.45;59.53;97876.47;5006628;28;20061;-43
2022/09/04 06:36:14;;;;;;;3.22;2.85;;;17.70;99.90;;;20.53;59.35;97881.63;5007816;28;20355;-43
2022/09/04 06:39:29;;;;;;;3.42;3.10;;;17.70;99.90;;;20.65;59.39;97884.47;4996523;28;20062;-42
2022/09/04 06:42:40;;;;;;;5.03;3.10;;;17.90;99.90;;;20.64;59.53;97882.81;5007133;28;20080;-41
2022/09/04 06:45:21;;;;;;;4.03;3.25;;;17.90;99.90;;;20.69;59.44;97890.28;4993645;28;20058;-41
2022/09/04 06:48:16;;;;;;;4.03;2.78;;;18.00;99.90;;;20.74;59.50;97883.13;5005106;28;20264;-42
2022/09/04 06:51:33;;;;;;;4.05;2.40;;;18.10;99.90;;;20.81;59.29;97883.91;5005943;28;20064;-40
2022/09/04 06:54:38;;;;;;;3.55;2.72;;;18.10;99.90;;;20.90;59.17;97892.59;5003794;28;20064;-43
2022/09/04 06:57:46;;;;;;;2.97;2.40;;;18.20;99.90;;;20.96;59.05;97896.28;5004175;28;20366;-43
2022/09/04 07:00:18;;;;;;;2.80;2.35;;;18.30;99.90;;;21.00;59.04;97887.50;5005152;28;20054;-44
2022/09/04 07:03:13;;;;;;;4.03;2.42;;;18.30;99.90;;;21.03;59.19;97891.63;5005321;28;20368;-42
2022/09/04 07:06:03;;;;;;;2.75;2.45;;;18.40;99.90;;;21.12;59.18;97901.13;5006669;28;20060;-43
2022/09/04 07:09:06;;;;;;;9.95;3.30;;;18.40;99.90;;;21.18;58.43;97902.13;5004405;28;20365;-43
2022/09/04 07:11:46;;;;;;;3.67;2.08;;;18.50;99.90;;;21.22;58.55;97906.03;5003778;28;20069;-42
2022/09/04 07:14:35;;;;;;;3.45;3.00;;;18.60;99.90;;;21.23;58.49;97915.81;5005657;28;20088;-43
2022/09/04 07:17:41;;;;;;;4.22;2.28;;;18.60;99.90;;;21.25;58.72;97916.44;5006109;28;20068;-42
2022/09/04 07:20:14;;;;;;;3.70;2.22;;;18.60;99.90;;;21.25;58.67;97921.84;5006539;28;20054;-44
2022/09/04 07:23:31;;;;;;;4.10;2.30;;;18.60;99.90;;;21.31;58.69;97922.84;5004308;28;20054;-44
2022/09/04 07:26:31;;;;;;;4.40;2.45;;;18.70;99.90;;;21.36;58.75;97921.09;5005800;28;20235;-43
2022/09/04 07:29:23;;;;;;;3.20;2.60;;;18.80;99.90;;;21.46;58.48;97923.34;5005161;28;20060;-45
2022/09/04 07:32:08;;;;;;;3.90;2.55;;;18.80;99.90;;;21.53;58.36;97925.97;5006638;28;20060;-42
2022/09/04 07:35:12;;;;;;;3.40;2.65;;;18.90;99.90;;;21.61;58.21;97928.38;5003397;28;20352;-43
2022/09/04 07:37:57;;;;;;;4.57;2.08;;;18.90;99.90;;;21.65;58.13;97932.28;5005596;28;20064;-43
2022/09/04 07:40:30;;;;;;;4.35;2.65;;;19.00;99.90;;;21.68;57.75;97931.84;5005286;28;20045;-43
2022/09/04 07:43:28;;;;;;;3.17;2.50;;;19.10;99.90;;;21.74;57.81;97936.34;5008551;28;20053;-43
2022/09/04 07:46:23;;;;;;;5.72;2.42;;;19.10;99.90;;;21.75;58.36;97939.88;5009517;28;20058;-46
2022/09/04 07:49:04;;;;;;;3.08;2.28;;;19.20;99.90;;;21.79;57.77;97947.34;5006949;28;20262;-43
2022/09/04 07:51:47;;;;;;;3.28;2.53;;;19.20;99.90;;;21.78;57.91;97950.28;5008496;28;20046;-45
2022/09/04 07:54:43;;;;;;;3.33;3.03;;;19.20;99.90;;;21.76;57.37;97953.22;5007035;28;20049;-43
2022/09/04 07:57:38;;;;;;;2.92;2.40;;;19.20;99.90;;;21.83;57.37;97958.56;5008892;28;20064;-42
2022/09/04 08:00:21;;;;;;;2.95;2.55;;;19.20;99.90;;;21.82;57.32;97959.59;5007652;28;20069;-43
2022/09/04 08:03:16;;;;;;;3.92;2.15;;;19.20;99.90;;;21.87;57.49;97957.06;5008999;28;20345;-43
2022/09/04 08:06:13;;;;;;;3.08;2.15;;;19.30;99.90;;;21.90;56.93;97962.00;5008707;28;20061;-44
2022/09/04 08:08:54;;;;;;;3.60;2.38;;;19.40;99.90;;;21.98;56.93;97961.72;5008759;28;20058;-42
2022/09/04 08:12:28;;;;;;;2.80;2.50;;;19.40;99.90;;;22.01;57.02;97957.72;5008214;28;20062;-43
2022/09/04 08:15:09;;;;;;;4.32;2.13;;;19.50;99.90;;;22.10;56.62;97966.38;5007729;28;20066;-44
2022/09/04 08:18:12;;;;;;;2.38;2.13;;;19.50;99.90;;;22.01;56.56;97966.69;5008259;28;20056;-42
2022/09/04 08:21:33;;;;;;;2.55;2.10;;;19.60;99.90;;;22.12;56.29;97972.38;5009149;28;20275;-43
2022/09/04 08:24:40;;;;;;;2.70;2.30;;;19.60;99.90;;;22.16;56.33;97971.72;5005612;28;20060;-44
2022/09/04 08:27:37;;;;;;;3.50;2.15;;;19.60;99.90;;;22.19;56.46;97973.97;5007065;28;20252;-43
2022/09/04 08:30:15;;;;;;;4.83;2.50;;;19.60;99.90;;;22.27;56.20;97972.03;5008375;28;20053;-44
2022/09/04 08:32:52;;;;;;;2.80;2.43;;;19.70;99.90;;;22.27;56.21;97982.88;5007322;28;20045;-43
2022/09/04 08:35:33;;;;;;;2.65;1.92;;;19.70;99.90;;;22.30;56.04;97993.28;5008985;28;20057;-43
2022/09/04 08:38:35;;;;;;;3.63;2.15;;;19.80;99.90;;;22.35;56.25;97990.69;5008506;28;20366;-41
2022/09/04 08:41:36;;;;;;;2.92;2.28;;;19.80;99.90;;;22.38;56.01;98001.09;5007000;28;20053;-45
2022/09/04 08:44:40;;;;;;;4.03;2.50;;;19.90;99.90;;;22.44;56.30;97999.34;5008691;28;20058;-44
2022/09/04 08:48:17;;;;;;;3.90;2.50;;;20.00;99.90;;;22.49;56.40;97991.34;5007581;28;20061;-43
2022/09/04 08:51:08;;;;;;;2.78;2.30;;;20.00;99.90;;;22.47;55.72;97996.16;5009286;28;20250;-41
2022/09/04 08:54:24;;;;;;;4.82;2.70;;;20.00;99.90;;;22.56;56.00;97997.50;5006534;28;20054;-41
2022/09/04 08:57:41;;;;;;;1.95;1.75;;;20.10;99.90;;;22.65;55.72;98006.16;5008438;28;20054;-41
2022/09/04 09:00:37;;;;;;;3.38;1.88;;;20.10;99.90;;;22.57;54.14;98004.59;5007139;28;20065;-42
2022/09/04 09:03:51;;;;;;;2.88;1.50;;;20.10;99.90;;;22.73;54.29;97998.53;5008394;28;20068;-41
2022/09/04 09:06:40;;;;;;;2.28;1.58;;;20.20;99.90;;;22.81;53.85;98000.06;5007236;28;20049;-41
2022/09/04 09:09:32;;;;;;;2.78;1.90;;;20.20;99.90;;;22.83;53.48;98000.66;5007799;28;20076;-39
2022/09/04 09:12:45;;;;;;;2.10;1.85;;;20.30;99.90;;;22.83;53.34;97997.97;5009309;28;20066;-41
2022/09/04 09:15:37;;;;;;;3.40;2.30;;;20.30;99.90;;;22.86;53.24;98002.94;5008992;28;20060;-42
2022/09/04 09:18:37;;;;;;;3.05;2.00;;;20.30;99.90;;;22.91;53.85;98002.22;5008954;28;20053;-41
2022/09/04 09:21:22;;;;;;;3.63;1.73;;;20.40;99.90;;;22.95;52.93;98000.69;5007195;28;20954;-42
2022/09/04 09:24:29;;;;;;;1.88;1.50;;;20.40;99.90;;;23.00;52.59;97998.94;5009562;28;20073;-39
2022/09/04 09:27:39;;;;;;;2.28;1.80;;;20.50;99.90;;;23.04;52.54;98003.97;5008282;28;20466;-41
2022/09/04 09:30:19;;;;;;;2.42;1.90;;;20.60;98.60;;;23.02;51.93;97998.72;5007248;28;20049;-41
2022/09/04 09:33:29;;;;;;;1.75;1.45;;;20.60;98.90;;;23.10;53.21;97992.97;5007328;28;20050;-41
2022/09/04 09:36:21;;;;;;;2.08;1.70;;;20.70;99.90;;;23.19;52.10;97994.28;4997487;28;20058;-41
2022/09/04 09:39:04;;;;;;;1.90;1.77;;;20.70;98.80;;;23.27;51.78;97992.31;5016799;28;20090;-41
2022/09/04 09:41:58;;;;;;;3.08;1.83;;;20.80;98.00;;;23.33;52.18;98002.22;5019531;28;20057;-41
2022/09/04 09:44:44;;;;;;;;;;;20.90;99.20;;;23.52;51.61;97994.81;5018701;28;20053;-41
2022/09/04 09:47:52;;;;;;;6.65;2.92;;;20.90;95.70;;;23.50;51.82;97996.94;5017376;28;19918;-41
2022/09/04 09:51:23;;;;;;;2.83;2.45;;;20.90;96.60;;;23.46;51.36;97993.84;5033099;28;20049;-41
2022/09/04 09:54:22;;;;;;;4.60;1.60;;;20.90;94.90;;;23.49;50.99;97990.66;5015801;28;20044;-41
2022/09/04 09:57:11;;;;;;;3.80;2.35;;;21.00;95.00;;;23.54;51.46;97984.53;5016067;28;20057;-41
2022/09/04 10:00:43;;;;;;;3.08;2.10;;;21.10;95.00;;;23.57;50.81;97994.91;5018048;28;20049;-40
2022/09/04 10:03:55;;;;;;;5.03;2.00;;;21.10;95.70;;;23.65;50.81;97991.00;5018449;28;20060;-41
2022/09/04 10:06:43;;;;;;;2.35;1.67;;;21.20;91.80;;;23.63;49.17;97991.22;5024601;28;20262;-41
2022/09/04 10:09:49;;;;;;;2.53;2.00;;;21.20;91.60;;;23.64;49.24;97987.47;5017111;28;20064;-41
2022/09/04 10:12:50;;;;;;;2.50;1.90;;;21.20;84.00;;;23.70;48.95;97983.78;5014352;28;20037;-41
2022/09/04 10:15:55;;;;;;;2.08;1.88;;;21.20;84.50;;;23.74;49.11;97984.97;5017596;28;20083;-41
2022/09/04 10:18:44;;;;;;;1.90;1.48;;;21.20;83.80;;;23.81;49.94;97982.19;5031044;28;20052;-41
2022/09/04 10:21:21;;;;;;;4.00;2.25;;;21.30;88.10;;;23.86;50.02;97979.53;5015288;28;20944;-41
2022/09/04 10:24:31;;;;;;;3.13;1.85;;;21.40;88.90;;;23.94;49.59;97981.91;5017153;28;20068;-41
2022/09/04 10:27:49;;;;;;;3.30;1.83;;;21.50;86.00;;;24.00;49.73;97976.56;5014651;28;20076;-41
2022/09/04 10:30:27;;;;;;;3.38;1.83;;;21.50;86.60;;;24.04;49.46;97970.44;5017703;28;20052;-44
2022/09/04 10:33:25;;;;;;;4.32;2.47;;;21.50;87.00;;;24.06;50.00;97964.72;5032728;28;20053;-40
2022/09/04 10:36:09;;;;;;;2.50;1.83;;;21.70;86.10;;;24.20;49.23;97971.56;5018592;28;20042;-40
2022/09/04 10:42:07;;;;;;;2.78;1.70;;;22.00;87.40;;;25.20;49.67;97969.28;5017030;28;20066;-40
2022/09/04 10:45:40;;;;;;;1.92;1.50;;;22.60;80.90;;;25.93;47.77;97970.16;5032351;28;20057;-39
2022/09/04 10:48:47;;;;;;;31.40;28.50;;;23.20;74.20;;;26.80;45.17;97975.00;4995196;28;20616;-40
2022/09/04 10:52:03;;;;;;;36.92;32.60;;;23.70;68.80;;;27.30;44.76;97969.19;4996227;28;20054;-40
2022/09/04 10:55:15;;;;;;;12.65;9.48;;;24.10;64.40;;;27.66;43.36;97971.31;4995185;28;20088;-40
2022/09/04 10:58:09;;;;;;;2.97;2.65;;;24.40;61.00;;;27.75;40.42;97969.75;5017631;28;20042;-40
2022/09/04 11:01:04;;;;;;;4.00;2.83;;;24.40;59.40;;;27.90;41.39;97960.84;5032399;28;20054;-41
2022/09/04 11:04:12;;;;;;;2.10;1.90;;;24.50;63.00;;;28.26;40.65;97967.25;5018206;28;20042;-41
2022/09/04 11:07:10;;;;;;;2.65;2.00;;;24.80;57.40;;;28.83;40.18;97959.25;5030507;28;20045;-40
2022/09/04 11:10:05;;;;;;;3.00;2.70;;;25.30;57.70;;;29.56;39.63;97966.38;5017535;28;20054;-40
2022/09/04 11:13:09;;;;;;;2.83;2.35;;;25.80;54.20;;;30.27;38.52;97967.28;5017544;28;20060;-38
2022/09/04 11:16:02;;;;;;;2.03;1.83;;;26.30;56.10;;;30.41;36.28;97962.84;5017666;28;20041;-38
2022/09/04 11:19:19;;;;;;;2.05;1.83;;;26.50;52.80;;;30.32;36.37;97956.28;5021491;28;20053;-39
2022/09/04 11:22:11;;;;;;;2.50;1.75;;;26.40;54.20;;;30.06;35.74;97967.34;5022210;28;20052;-41
2022/09/04 11:25:17;;;;;;;3.00;1.98;;;26.20;50.70;;;29.72;35.44;97959.78;5019653;28;20065;-42
2022/09/04 11:27:58;;;;;;;2.38;1.70;;;25.90;54.70;;;29.36;35.81;97970.78;5003733;28;20106;-41
2022/09/04 11:30:55;;;;;;;2.13;1.90;;;25.60;53.20;;;29.03;36.74;97961.16;5004820;28;20058;-41
2022/09/04 11:34:00;;;;;;;2.38;2.15;;;25.40;52.10;;;28.70;36.05;97959.75;5002437;28;20349;-42
2022/09/04 11:36:58;;;;;;;2.78;1.70;;;25.20;52.00;;;28.45;36.84;97953.91;4997840;28;20080;-41
2022/09/04 11:40:09;;;;;;;2.47;1.83;;;25.00;53.30;;;28.21;37.68;97953.59;4993437;28;20054;-42
2022/09/04 11:42:54;;;;;;;2.08;1.80;;;25.00;53.80;;;28.04;37.44;97955.69;4982753;28;20062;-41
2022/09/04 11:46:05;;;;;;;2.83;1.75;;;24.90;55.40;;;27.89;37.76;97950.97;4990864;28;20050;-42
2022/09/04 11:49:06;;;;;;;2.60;1.90;;;24.90;54.30;;;27.76;38.09;97948.69;4989499;28;20050;-41
2022/09/04 11:52:01;;;;;;;2.28;1.90;;;24.80;54.90;;;27.60;38.65;97950.50;4990901;28;20260;-42
2022/09/04 11:54:31;;;;;;;3.75;1.63;;;24.70;56.00;;;27.50;39.43;97954.81;4990069;28;20083;-42
2022/09/04 11:57:47;;;;;;;2.78;1.80;;;24.60;56.70;;;27.40;38.89;97959.41;4989700;28;20667;-42
2022/09/04 12:00:17;;;;;;;4.68;2.38;;;24.60;56.50;;;27.23;38.77;97962.25;4989250;28;20046;-43
2022/09/04 12:02:51;;;;;;;2.10;1.90;;;24.40;56.70;;;27.13;39.21;97962.19;4989278;28;20051;-41
2022/09/04 12:05:39;;;;;;;3.00;1.60;;;24.30;56.70;;;26.98;39.01;97963.69;4996156;28;20046;-42
2022/09/04 12:08:36;;;;;;;3.03;1.80;;;24.10;56.40;;;26.87;39.42;97959.22;5008211;28;20647;-42
2022/09/04 12:11:32;;;;;;;2.10;1.80;;;24.00;57.10;;;26.78;39.88;97966.25;5008781;28;20053;-42
2022/09/04 12:14:33;;;;;;;1.52;1.40;;;23.90;56.20;;;26.77;39.56;97961.84;5009172;28;20052;-42
2022/09/04 12:17:28;;;;;;;2.15;1.80;;;24.00;55.00;;;26.78;39.28;97960.78;5006907;28;20376;-41
2022/09/04 12:20:22;;;;;;;3.42;1.60;;;23.90;55.20;;;26.70;38.94;97957.44;5008494;28;20073;-42
2022/09/04 12:23:17;;;;;;;2.17;1.90;;;23.90;55.60;;;26.81;39.42;97963.81;5009293;28;20050;-41
2022/09/04 12:26:37;;;;;;;2.78;1.55;;;24.10;55.90;;;27.03;39.47;97963.75;5009638;28;20057;-41